Time;durP1;ratioP1;P1;durP2;ratioP2;P2;SDS_P1;SDS_P2;PMS_P1;PMS_P2;Temp;Humidity;BMP_temperature;BMP_pressure;BME280_temperature;BME280_humidity;BME280_pressure;Samples;Min_cycle;Max_cycle;Signal;HPM_P1;HPM_P2
2023/12/23 00:01:00;;;;;;;6.93;1.85;;;;;;;6.29;100.00;100860.97;4890933;29;20496;-74
2023/12/23 00:03:25;;;;;;;8.93;1.80;;;;;;;6.33;100.00;100856.34;4882693;29;20039;-73
2023/12/23 00:05:50;;;;;;;15.00;2.88;;;;;;;6.33;100.00;100862.53;4899811;29;20062;-74
2023/12/23 00:08:16;;;;;;;10.90;2.10;;;;;;;6.36;100.00;100864.16;4897477;29;20045;-73
2023/12/23 00:10:41;;;;;;;7.95;1.90;;;;;;;6.37;100.00;100866.75;4883456;29;20036;-73
2023/12/23 00:13:06;;;;;;;6.63;1.98;;;;;;;6.37;100.00;100868.53;4915341;29;20029;-74
2023/12/23 00:15:31;;;;;;;11.30;2.55;;;;;;;6.36;100.00;100872.19;4910766;29;20047;-75
2023/12/23 00:17:57;;;;;;;13.75;2.10;;;;;;;6.38;100.00;100864.94;4893252;29;20025;-74
2023/12/23 00:20:22;;;;;;;11.98;2.22;;;;;;;6.39;100.00;100856.84;4897954;29;20028;-75
2023/12/23 00:22:47;;;;;;;9.10;2.45;;;;;;;6.42;100.00;100858.50;4915141;29;20040;-75
2023/12/23 00:25:13;;;;;;;5.28;1.85;;;;;;;6.46;100.00;100852.88;4914822;29;20033;-75
2023/12/23 00:27:38;;;;;;;10.75;2.40;;;;;;;6.47;100.00;100851.94;4911870;29;20028;-75
2023/12/23 00:30:04;;;;;;;11.25;2.80;;;;;;;6.47;100.00;100843.94;4890230;29;20047;-75
2023/12/23 00:32:29;;;;;;;13.98;3.20;;;;;;;6.49;100.00;100838.50;4913243;29;20037;-74
2023/12/23 00:34:55;;;;;;;13.73;3.10;;;;;;;6.50;100.00;100848.25;4914586;29;20158;-75
2023/12/23 00:37:20;;;;;;;12.38;3.03;;;;;;;6.53;100.00;100844.53;4905132;29;20135;-75
2023/12/23 00:39:45;;;;;;;14.70;3.78;;;;;;;6.54;100.00;100838.25;4917060;29;20029;-75
2023/12/23 00:42:11;;;;;;;12.82;3.15;;;;;;;6.59;100.00;100841.53;4907217;29;20047;-75
2023/12/23 00:44:36;;;;;;;14.32;3.45;;;;;;;6.67;100.00;100839.25;4894511;29;20039;-75
2023/12/23 00:47:01;;;;;;;24.70;4.40;;;;;;;6.76;100.00;100838.72;4892491;29;20054;-75
2023/12/23 00:49:26;;;;;;;18.23;4.13;;;;;;;6.88;100.00;100823.81;4908722;29;20024;-75
2023/12/23 00:51:52;;;;;;;22.70;4.15;;;;;;;6.98;100.00;100827.69;4906351;29;20033;-75
2023/12/23 00:54:18;;;;;;;17.15;3.95;;;;;;;7.08;100.00;100827.97;4907744;29;20056;-75
2023/12/23 00:56:43;;;;;;;15.90;4.03;;;;;;;7.16;100.00;100809.69;4891672;29;22018;-75
2023/12/23 00:59:08;;;;;;;12.15;3.63;;;;;;;7.22;100.00;100819.16;4887202;29;20024;-75
2023/12/23 01:01:33;;;;;;;14.68;3.30;;;;;;;7.24;100.00;100806.53;4906556;29;20056;-75
2023/12/23 01:03:59;;;;;;;18.92;4.10;;;;;;;7.30;100.00;100814.19;4891744;29;20067;-75
2023/12/23 01:06:24;;;;;;;19.95;4.07;;;;;;;7.35;100.00;100819.28;4906200;29;20081;-75
2023/12/23 01:08:49;;;;;;;14.38;3.38;;;;;;;7.40;100.00;100819.00;4907776;29;20025;-75
2023/12/23 01:11:14;;;;;;;17.63;3.65;;;;;;;7.41;100.00;100818.03;4892364;29;20530;-75
2023/12/23 01:13:40;;;;;;;16.67;3.30;;;;;;;7.44;100.00;100817.88;4886462;29;20025;-75
2023/12/23 01:16:05;;;;;;;15.95;4.13;;;;;;;7.48;100.00;100814.03;4896465;29;20028;-75
2023/12/23 01:18:30;;;;;;;18.38;3.40;;;;;;;7.48;100.00;100797.97;4902232;29;20665;-75
2023/12/23 01:20:56;;;;;;;16.52;2.97;;;;;;;7.51;100.00;100805.81;4883088;29;20033;-75
2023/12/23 01:23:21;;;;;;;11.10;3.25;;;;;;;7.53;100.00;100798.56;4887906;29;20063;-73
2023/12/23 01:25:46;;;;;;;14.93;3.42;;;;;;;7.56;100.00;100801.06;4898156;29;20064;-73
2023/12/23 01:28:12;;;;;;;21.08;3.78;;;;;;;7.56;100.00;100797.53;4882320;29;20064;-74
2023/12/23 01:30:38;;;;;;;14.70;3.15;;;;;;;7.59;100.00;100800.03;4896989;29;20038;-74
2023/12/23 01:33:03;;;;;;;16.52;3.92;;;;;;;7.62;100.00;100784.63;4891683;29;20028;-73
2023/12/23 01:35:28;;;;;;;14.93;3.35;;;;;;;7.64;100.00;100787.22;4891417;29;20045;-74
2023/12/23 01:37:54;;;;;;;19.75;3.60;;;;;;;7.66;100.00;100796.88;4894358;29;20113;-74
2023/12/23 01:40:19;;;;;;;14.65;3.17;;;;;;;7.68;100.00;100784.25;4898836;29;20100;-75
2023/12/23 01:42:44;;;;;;;18.65;3.60;;;;;;;7.69;100.00;100775.28;4897728;29;20076;-73
2023/12/23 01:45:10;;;;;;;15.13;3.80;;;;;;;7.72;100.00;100781.38;4903705;29;20033;-73
2023/12/23 01:47:40;;;;;;;10.15;2.60;;;;;;;7.73;100.00;100791.13;4898773;29;20111;-73
2023/12/23 01:50:07;;;;;;;;;;;;;;;7.76;100.00;100791.81;4890289;29;20041;-73
2023/12/23 01:52:33;;;;;;;15.43;3.72;;;;;;;7.77;100.00;100787.31;4880175;29;20347;-73
2023/12/23 01:54:59;;;;;;;15.15;3.45;;;;;;;7.79;100.00;100790.72;4898206;29;20036;-73
2023/12/23 01:57:24;;;;;;;15.82;3.70;;;;;;;7.80;100.00;100795.13;4886553;29;20488;-74
2023/12/23 01:59:50;;;;;;;22.92;3.85;;;;;;;7.81;100.00;100788.84;4899100;29;20064;-73
2023/12/23 02:02:17;;;;;;;12.18;3.70;;;;;;;7.81;100.00;100775.47;4881377;29;20032;-73
2023/12/23 02:04:42;;;;;;;16.30;3.55;;;;;;;7.82;100.00;100774.50;4900787;29;20032;-73
2023/12/23 02:07:08;;;;;;;14.80;3.08;;;;;;;7.81;100.00;100772.78;4881661;29;20040;-74
2023/12/23 02:09:33;;;;;;;20.17;3.90;;;;;;;7.79;100.00;100785.38;4887833;29;20480;-73
2023/12/23 02:12:15;;;;;;;12.70;2.97;;;;;;;7.76;100.00;100770.41;4903186;29;20059;-74
2023/12/23 02:14:45;;;;;;;15.55;3.58;;;;;;;7.75;100.00;100762.47;4893640;29;20835;-73
2023/12/23 02:17:11;;;;;;;12.25;2.97;;;;;;;7.74;100.00;100763.44;4893239;29;20051;-72
2023/12/23 02:19:36;;;;;;;23.58;4.53;;;;;;;7.74;100.00;100755.41;4880613;29;20028;-73
2023/12/23 02:22:01;;;;;;;16.08;3.28;;;;;;;7.71;100.00;100751.09;4882093;29;20051;-72
2023/12/23 02:24:27;;;;;;;15.32;3.10;;;;;;;7.72;100.00;100762.63;4898414;29;20153;-73
2023/12/23 02:26:58;;;;;;;19.23;4.18;;;;;;;7.72;100.00;100758.16;4890028;29;20064;-73
2023/12/23 02:29:24;;;;;;;13.93;4.00;;;;;;;7.73;100.00;100759.91;4894157;29;20024;-73
2023/12/23 02:31:50;;;;;;;14.63;3.88;;;;;;;7.73;100.00;100761.69;4897684;29;20388;-73
2023/12/23 02:34:16;;;;;;;16.48;3.65;;;;;;;7.75;100.00;100760.66;4876647;29;20516;-72
2023/12/23 02:36:41;;;;;;;14.25;3.78;;;;;;;7.76;100.00;100769.53;4898992;29;20035;-73
2023/12/23 02:39:07;;;;;;;22.30;3.55;;;;;;;7.76;100.00;100765.06;4895468;29;20029;-73
2023/12/23 02:41:32;;;;;;;10.48;2.63;;;;;;;7.77;100.00;100761.41;4875784;29;20123;-73
2023/12/23 02:43:57;;;;;;;14.43;3.67;;;;;;;7.79;100.00;100747.94;4899138;29;20036;-72
2023/12/23 02:46:22;;;;;;;16.70;3.63;;;;;;;7.80;100.00;100757.69;4881887;29;20036;-73
2023/12/23 02:48:48;;;;;;;16.85;4.20;;;;;;;7.81;100.00;100746.03;4894581;29;20546;-73
2023/12/23 02:51:13;;;;;;;19.67;3.53;;;;;;;7.82;100.00;100739.72;4894523;29;20407;-73
2023/12/23 02:53:38;;;;;;;19.13;3.35;;;;;;;7.85;100.00;100739.53;4890939;29;20384;-72
2023/12/23 02:56:04;;;;;;;15.85;3.40;;;;;;;7.83;100.00;100720.91;4897345;29;20057;-73
2023/12/23 02:58:29;;;;;;;19.17;3.53;;;;;;;7.87;100.00;100733.09;4893352;29;20108;-72
2023/12/23 03:00:55;;;;;;;12.50;3.00;;;;;;;7.89;100.00;100735.69;4891170;29;20052;-73
2023/12/23 03:03:20;;;;;;;14.13;3.25;;;;;;;7.90;100.00;100721.34;4897579;29;20135;-72
2023/12/23 03:05:45;;;;;;;20.40;3.83;;;;;;;7.94;100.00;100720.19;4874578;29;20543;-73
2023/12/23 03:08:10;;;;;;;14.50;2.95;;;;;;;7.94;100.00;100719.34;4896928;29;20027;-73
2023/12/23 03:10:36;;;;;;;14.07;3.03;;;;;;;7.96;100.00;100723.63;4897982;29;20090;-73
2023/12/23 03:13:02;;;;;;;17.23;3.17;;;;;;;7.98;100.00;100715.50;4898449;29;20024;-73
2023/12/23 03:15:28;;;;;;;19.52;3.28;;;;;;;7.96;100.00;100718.28;4891813;29;20044;-74
2023/12/23 03:17:54;;;;;;;13.65;3.42;;;;;;;7.98;100.00;100719.06;4896912;29;20064;-73
2023/12/23 03:20:19;;;;;;;13.95;3.15;;;;;;;8.00;100.00;100718.94;4898773;29;20143;-74
2023/12/23 03:22:44;;;;;;;19.52;3.70;;;;;;;8.01;100.00;100720.69;4898650;29;20127;-74
2023/12/23 03:25:10;;;;;;;13.23;3.40;;;;;;;8.01;100.00;100716.19;4880594;29;20036;-73
2023/12/23 03:27:36;;;;;;;20.15;4.50;;;;;;;8.02;100.00;100712.56;4883069;29;20059;-75
2023/12/23 03:30:01;;;;;;;15.60;3.78;;;;;;;8.01;100.00;100729.56;4882731;29;20318;-73
2023/12/23 03:32:27;;;;;;;16.52;3.75;;;;;;;8.02;100.00;100717.03;4893025;29;20090;-73
2023/12/23 03:34:52;;;;;;;16.17;3.70;;;;;;;8.03;100.00;100724.94;4877097;29;20522;-73
2023/12/23 03:37:17;;;;;;;19.23;4.03;;;;;;;8.04;100.00;100715.13;4878110;29;20051;-73
2023/12/23 03:39:42;;;;;;;19.27;3.55;;;;;;;8.02;100.00;100712.56;4880645;29;20493;-74
2023/12/23 03:42:08;;;;;;;15.55;3.42;;;;;;;8.03;100.00;100713.41;4902460;29;20037;-75
2023/12/23 03:44:33;;;;;;;14.52;3.65;;;;;;;8.03;100.00;100714.25;4898191;29;20040;-75
2023/12/23 03:46:58;;;;;;;12.63;3.25;;;;;;;8.01;100.00;100713.50;4879924;29;20520;-75
2023/12/23 03:49:24;;;;;;;18.92;3.85;;;;;;;8.01;100.00;100721.53;4883369;29;20059;-74
2023/12/23 03:51:49;;;;;;;17.80;3.42;;;;;;;8.03;100.00;100711.56;4898248;29;20060;-75
2023/12/23 03:54:14;;;;;;;14.57;3.83;;;;;;;8.03;100.00;100702.69;4881793;29;20110;-75
2023/12/23 03:56:39;;;;;;;13.98;3.28;;;;;;;8.04;100.00;100709.78;4883680;29;20523;-75
2023/12/23 03:59:05;;;;;;;21.73;4.03;;;;;;;8.03;100.00;100719.59;4901520;29;20036;-74
2023/12/23 04:01:30;;;;;;;16.10;4.10;;;;;;;8.04;100.00;100718.66;4901437;29;20076;-75
2023/12/23 04:03:55;;;;;;;14.80;3.90;;;;;;;8.03;100.00;100700.88;4904936;29;20043;-75
2023/12/23 04:06:20;;;;;;;16.80;4.32;;;;;;;8.05;100.00;100706.13;4881379;29;20024;-75
2023/12/23 04:08:46;;;;;;;17.17;4.20;;;;;;;8.05;100.00;100696.28;4899021;29;20056;-75
2023/12/23 04:11:11;;;;;;;16.92;3.90;;;;;;;8.05;100.00;100707.00;4882187;29;20056;-75
2023/12/23 04:13:37;;;;;;;18.27;3.95;;;;;;;8.05;100.00;100695.41;4882954;29;20090;-75
2023/12/23 04:16:04;;;;;;;17.80;4.53;;;;;;;8.05;100.00;100706.13;4882686;29;20033;-75
2023/12/23 04:18:29;;;;;;;15.38;3.67;;;;;;;8.07;100.00;100697.97;4902175;29;20024;-75
2023/12/23 04:20:54;;;;;;;16.35;3.78;;;;;;;8.06;100.00;100697.13;4882655;29;20033;-74
2023/12/23 04:23:20;;;;;;;15.23;4.57;;;;;;;8.05;100.00;100696.28;4897175;29;20052;-75
2023/12/23 04:25:45;;;;;;;17.90;3.42;;;;;;;8.06;100.00;100686.44;4892895;29;20024;-75
2023/12/23 04:28:11;;;;;;;12.63;3.33;;;;;;;8.04;100.00;100689.22;4894087;29;20056;-75
2023/12/23 04:30:37;;;;;;;21.25;3.97;;;;;;;8.06;100.00;100681.06;4894928;29;20051;-75
2023/12/23 04:33:02;;;;;;;16.88;3.50;;;;;;;8.04;100.00;100675.81;4902089;29;20353;-74
2023/12/23 04:35:28;;;;;;;14.20;3.38;;;;;;;8.05;100.00;100674.88;4864277;29;20100;-75
2023/12/23 04:37:53;;;;;;;16.73;3.55;;;;;;;8.05;100.00;100658.81;4868856;29;20509;-74
2023/12/23 04:40:18;;;;;;;13.75;3.20;;;;;;;8.05;100.00;100669.53;4887308;29;20481;-75
2023/12/23 04:42:43;;;;;;;22.42;4.35;;;;;;;8.05;100.00;100655.25;4884385;29;20287;-75
2023/12/23 04:45:09;;;;;;;18.58;4.07;;;;;;;8.07;100.00;100658.72;4882635;29;20081;-75
2023/12/23 04:47:35;;;;;;;17.38;3.30;;;;;;;8.07;100.00;100656.03;4882100;29;20032;-75
2023/12/23 04:50:00;;;;;;;13.05;2.85;;;;;;;8.07;100.00;100669.41;4883327;29;20033;-75
2023/12/23 04:52:25;;;;;;;19.05;3.40;;;;;;;8.05;100.00;100661.50;4878551;29;20033;-75
2023/12/23 04:54:51;;;;;;;23.27;3.67;;;;;;;8.07;100.00;100655.16;4871009;29;20124;-75
2023/12/23 04:57:16;;;;;;;12.75;2.75;;;;;;;8.05;100.00;100642.75;4875624;29;20025;-75
2023/12/23 04:59:41;;;;;;;19.02;4.05;;;;;;;8.07;100.00;100660.50;4881609;29;20405;-76
2023/12/23 05:02:07;;;;;;;13.18;3.35;;;;;;;8.07;100.00;100665.88;4874771;29;20469;-75
2023/12/23 05:04:32;;;;;;;19.58;3.97;;;;;;;8.07;100.00;100644.44;4878215;29;20128;-75
2023/12/23 05:06:57;;;;;;;15.90;3.45;;;;;;;8.07;100.00;100639.09;4881179;29;20057;-76
2023/12/23 05:09:23;;;;;;;13.95;3.78;;;;;;;8.06;100.00;100648.97;4865125;29;20020;-75
2023/12/23 05:11:48;;;;;;;18.60;3.72;;;;;;;8.07;100.00;100661.38;4882636;29;20036;-75
2023/12/23 05:14:13;;;;;;;19.70;3.90;;;;;;;8.07;100.00;100641.78;4875203;29;20485;-75
2023/12/23 05:16:39;;;;;;;17.65;3.88;;;;;;;8.05;100.00;100658.81;4856218;29;20097;-75
2023/12/23 05:19:04;;;;;;;17.02;3.53;;;;;;;8.05;100.00;100649.91;4880659;29;20028;-75
2023/12/23 05:21:29;;;;;;;14.75;3.72;;;;;;;8.05;100.00;100656.13;4867818;29;20445;-75
2023/12/23 05:23:55;;;;;;;20.60;3.75;;;;;;;8.05;100.00;100653.47;4880513;29;20047;-75
2023/12/23 05:26:20;;;;;;;15.68;3.22;;;;;;;8.05;100.00;100648.09;4876069;29;20574;-75
2023/12/23 05:28:46;;;;;;;15.05;3.55;;;;;;;8.05;100.00;100639.19;4863656;29;20061;-75
2023/12/23 05:31:11;;;;;;;15.55;3.40;;;;;;;8.05;100.00;100634.72;4861189;29;20045;-75
2023/12/23 05:33:37;;;;;;;17.20;3.58;;;;;;;8.05;100.00;100640.09;4881011;29;20135;-75
2023/12/23 05:36:02;;;;;;;20.13;3.35;;;;;;;8.07;100.00;100639.09;4898805;29;20116;-75
2023/12/23 05:38:27;;;;;;;14.27;4.30;;;;;;;8.07;100.00;100621.25;4896320;29;20111;-75
2023/12/23 05:40:53;;;;;;;17.55;3.95;;;;;;;8.08;100.00;100641.66;4898160;29;20080;-76
2023/12/23 05:43:18;;;;;;;18.55;4.28;;;;;;;8.08;100.00;100628.28;4898810;29;20029;-75
2023/12/23 05:45:43;;;;;;;23.08;4.10;;;;;;;8.09;100.00;100631.84;4900150;29;20515;-76
2023/12/23 05:48:08;;;;;;;16.25;3.40;;;;;;;8.11;100.00;100630.78;4881448;29;20080;-75
2023/12/23 05:50:34;;;;;;;20.23;3.58;;;;;;;8.12;100.00;100634.31;4880389;29;20058;-75
2023/12/23 05:52:59;;;;;;;19.00;4.25;;;;;;;8.12;100.00;100637.84;4883182;29;20020;-75
2023/12/23 05:55:24;;;;;;;20.77;4.32;;;;;;;8.13;100.00;100628.84;4896237;29;20366;-75
2023/12/23 05:57:50;;;;;;;19.83;4.25;;;;;;;8.16;100.00;100649.22;4880064;29;20066;-75
2023/12/23 06:00:15;;;;;;;17.05;3.53;;;;;;;8.18;100.00;100637.41;4897738;29;20032;-75
2023/12/23 06:02:41;;;;;;;19.98;4.18;;;;;;;8.18;100.00;100644.59;4897851;29;20038;-75
2023/12/23 06:05:06;;;;;;;16.67;4.07;;;;;;;8.19;100.00;100638.31;4882171;29;20028;-75
2023/12/23 06:07:31;;;;;;;14.57;3.03;;;;;;;8.20;100.00;100656.09;4893023;29;20088;-75
2023/12/23 06:09:57;;;;;;;16.48;3.67;;;;;;;8.20;100.00;100651.59;4897563;29;20036;-75
2023/12/23 06:12:23;;;;;;;17.23;3.97;;;;;;;8.19;100.00;100623.09;4897941;29;20100;-75
2023/12/23 06:14:50;;;;;;;19.70;3.75;;;;;;;8.21;100.00;100625.66;4897631;29;20066;-75
2023/12/23 06:17:15;;;;;;;17.75;4.18;;;;;;;8.23;100.00;100634.47;4877656;29;20023;-75
2023/12/23 06:19:41;;;;;;;17.67;3.95;;;;;;;8.22;100.00;100617.53;4882743;29;20437;-75
2023/12/23 06:22:07;;;;;;;20.65;3.72;;;;;;;8.24;100.00;100612.06;4891846;29;20024;-75
2023/12/23 06:24:32;;;;;;;18.27;3.88;;;;;;;8.25;100.00;100623.66;4877947;29;20471;-74
2023/12/23 06:26:57;;;;;;;20.10;4.45;;;;;;;8.23;100.00;100624.59;4885187;29;20039;-74
2023/12/23 06:29:22;;;;;;;20.33;4.55;;;;;;;8.24;100.00;100622.78;4895553;29;20028;-75
2023/12/23 06:31:48;;;;;;;19.23;4.32;;;;;;;8.25;100.00;100620.97;4889754;29;20199;-75
2023/12/23 06:34:13;;;;;;;26.77;4.38;;;;;;;8.26;100.00;100633.38;4893612;29;20155;-75
2023/12/23 06:36:41;;;;;;;18.70;4.70;;;;;;;8.27;100.00;100627.06;4895673;29;20039;-75
2023/12/23 06:39:06;;;;;;;21.23;4.50;;;;;;;8.26;100.00;100628.91;4884256;29;20028;-75
2023/12/23 06:41:32;;;;;;;19.05;3.63;;;;;;;8.25;100.00;100653.94;4895360;29;20035;-75
2023/12/23 06:43:57;;;;;;;18.13;3.53;;;;;;;8.27;100.00;100651.16;4872780;29;20119;-75
2023/12/23 06:46:22;;;;;;;9.68;2.95;;;;;;;8.27;100.00;100641.31;4897852;29;20020;-75
2023/12/23 06:48:48;;;;;;;18.98;4.03;;;;;;;8.27;100.00;100641.31;4877465;29;20024;-75
2023/12/23 06:51:13;;;;;;;12.05;3.47;;;;;;;8.28;100.00;100632.31;4895875;29;20065;-75
2023/12/23 06:53:38;;;;;;;24.38;4.53;;;;;;;8.28;100.00;100626.13;4877961;29;20031;-75
2023/12/23 06:56:08;;;;;;;17.55;3.65;;;;;;;8.28;100.00;100629.63;4893429;29;20168;-75
2023/12/23 06:58:33;;;;;;;20.10;3.90;;;;;;;8.28;100.00;100632.31;4902463;29;20028;-75
2023/12/23 07:00:58;;;;;;;18.50;4.53;;;;;;;8.28;100.00;100621.59;4878596;29;20039;-75
2023/12/23 07:03:23;;;;;;;12.85;3.22;;;;;;;8.29;100.00;100626.00;4896336;29;20029;-74
2023/12/23 07:05:49;;;;;;;20.15;3.50;;;;;;;8.28;100.00;100613.56;4898488;29;20044;-75
2023/12/23 07:08:15;;;;;;;16.30;3.42;;;;;;;8.30;100.00;100621.50;4895169;29;20709;-76
2023/12/23 07:10:40;;;;;;;22.50;4.38;;;;;;;8.31;100.00;100621.41;4890559;29;20092;-75
2023/12/23 07:13:05;;;;;;;18.48;3.83;;;;;;;8.32;100.00;100624.97;4874655;29;20020;-76
2023/12/23 07:15:31;;;;;;;15.18;3.72;;;;;;;8.33;100.00;100607.91;4880873;29;20514;-74
2023/12/23 07:17:56;;;;;;;20.60;4.25;;;;;;;8.33;100.00;100608.78;4880024;29;20099;-75
2023/12/23 07:20:21;;;;;;;18.33;3.58;;;;;;;8.34;100.00;100621.19;4899630;29;20357;-76
2023/12/23 07:22:48;;;;;;;23.52;4.15;;;;;;;8.37;100.00;100634.38;4903676;29;20111;-73
2023/12/23 07:25:13;;;;;;;17.77;4.30;;;;;;;8.38;100.00;100637.91;4875251;29;20032;-73
2023/12/23 07:27:38;;;;;;;18.05;3.70;;;;;;;8.39;100.00;100642.31;4903178;29;20084;-72
2023/12/23 07:30:04;;;;;;;19.30;3.15;;;;;;;8.41;100.00;100661.81;4883780;29;20092;-74
2023/12/23 07:32:29;;;;;;;15.60;3.55;;;;;;;8.43;100.00;100648.31;4898853;29;20051;-73
2023/12/23 07:34:55;;;;;;;19.55;3.90;;;;;;;8.43;100.00;100632.25;4880365;29;20095;-73
2023/12/23 07:37:20;;;;;;;19.60;3.63;;;;;;;8.44;100.00;100655.41;4896285;29;20041;-74
2023/12/23 07:39:45;;;;;;;16.98;3.33;;;;;;;8.46;100.00;100648.13;4898760;29;20366;-73
2023/12/23 07:42:12;;;;;;;15.10;2.83;;;;;;;8.47;100.00;100656.06;4900936;29;20055;-73
2023/12/23 07:44:37;;;;;;;17.13;3.53;;;;;;;8.49;100.00;100653.28;4900234;29;20036;-74
2023/12/23 07:47:04;;;;;;;16.15;3.55;;;;;;;8.49;100.00;100654.16;4886224;29;20021;-73
2023/12/23 07:49:31;;;;;;;13.23;2.92;;;;;;;8.50;100.00;100646.97;4887616;29;20026;-74
2023/12/23 07:51:56;;;;;;;20.08;3.92;;;;;;;8.52;100.00;100645.03;4877869;29;20036;-73
2023/12/23 07:54:21;;;;;;;13.38;2.92;;;;;;;8.53;100.00;100636.91;4877851;29;20279;-73
2023/12/23 07:56:47;;;;;;;16.10;3.53;;;;;;;8.54;100.00;100635.09;4890537;29;20028;-73
2023/12/23 07:59:12;;;;;;;16.02;2.88;;;;;;;8.55;100.00;100637.66;4895716;29;20027;-72
2023/12/23 08:01:44;;;;;;;13.68;3.25;;;;;;;8.57;100.00;100635.72;4877481;29;20112;-73
2023/12/23 08:04:10;;;;;;;13.48;2.78;;;;;;;8.58;100.00;100641.97;4903662;29;20036;-73
2023/12/23 08:06:35;;;;;;;18.70;3.83;;;;;;;8.58;100.00;100641.97;4896989;29;20037;-74
2023/12/23 08:09:00;;;;;;;15.63;3.47;;;;;;;8.60;100.00;100641.88;4905822;29;20028;-73
2023/12/23 08:11:26;;;;;;;14.57;2.95;;;;;;;8.62;100.00;100643.44;4883794;29;20029;-72
2023/12/23 08:13:51;;;;;;;14.05;3.55;;;;;;;8.64;100.00;100641.53;4888006;29;20039;-73
2023/12/23 08:16:16;;;;;;;12.15;2.63;;;;;;;8.64;100.00;100646.91;4876624;29;20064;-73
2023/12/23 08:18:41;;;;;;;13.52;3.38;;;;;;;8.67;100.00;100656.56;4897607;29;20503;-73
2023/12/23 08:21:08;;;;;;;11.40;2.75;;;;;;;8.68;100.00;100683.25;4901168;29;20043;-73
2023/12/23 08:23:33;;;;;;;11.80;3.20;;;;;;;8.70;100.00;100659.03;4883145;29;20410;-72
2023/12/23 08:25:58;;;;;;;19.08;3.20;;;;;;;8.70;100.00;100651.84;4880344;29;20032;-72
2023/12/23 08:28:25;;;;;;;13.65;3.15;;;;;;;8.73;100.00;100648.94;4876719;29;20025;-73
2023/12/23 08:30:50;;;;;;;20.92;3.45;;;;;;;8.75;100.00;100664.91;4878184;29;20037;-73
2023/12/23 08:33:16;;;;;;;18.70;3.05;;;;;;;8.76;100.00;100658.59;4898833;29;20040;-73
2023/12/23 08:35:41;;;;;;;11.48;2.33;;;;;;;8.78;100.00;100658.47;4900528;29;20040;-72
2023/12/23 08:38:06;;;;;;;15.90;3.28;;;;;;;8.79;100.00;100666.41;4877527;29;20475;-73
2023/12/23 08:40:31;;;;;;;13.35;3.15;;;;;;;8.81;100.00;100666.31;4883213;29;20028;-73
2023/12/23 08:42:57;;;;;;;11.75;3.15;;;;;;;8.80;100.00;100664.59;4896820;29;20059;-74
2023/12/23 08:45:22;;;;;;;16.33;3.30;;;;;;;8.80;100.00;100668.16;4891320;29;20063;-74
2023/12/23 08:47:47;;;;;;;16.45;3.10;;;;;;;8.81;100.00;100677.88;4898428;29;20103;-74
2023/12/23 08:50:13;;;;;;;17.33;3.35;;;;;;;8.80;100.00;100665.47;4894581;29;20477;-74
2023/12/23 08:52:38;;;;;;;14.45;3.22;;;;;;;8.81;100.00;100667.16;4880983;29;20033;-74
2023/12/23 08:55:04;;;;;;;15.90;3.38;;;;;;;8.80;100.00;100660.09;4901822;29;20032;-75
2023/12/23 08:57:29;;;;;;;15.52;2.95;;;;;;;8.79;100.00;100689.69;4896282;29;20075;-74
2023/12/23 08:59:54;;;;;;;13.38;2.75;;;;;;;8.78;100.00;100677.25;4893722;29;20032;-75
2023/12/23 09:02:20;;;;;;;11.45;2.83;;;;;;;8.76;100.00;100681.88;4886565;29;20036;-75
2023/12/23 09:04:45;;;;;;;15.32;3.53;;;;;;;8.73;100.00;100682.91;4902937;29;20096;-74
2023/12/23 09:07:12;;;;;;;17.77;3.88;;;;;;;8.71;100.00;100693.75;4895988;29;20103;-74
2023/12/23 09:09:40;;;;;;;15.00;3.33;;;;;;;8.68;100.00;100703.78;4904710;29;20033;-74
2023/12/23 09:12:06;;;;;;;11.07;3.10;;;;;;;8.64;100.00;100713.00;4882050;29;20155;-74
2023/12/23 09:14:31;;;;;;;13.55;3.13;;;;;;;8.61;100.00;100703.38;4892878;29;20040;-74
2023/12/23 09:16:56;;;;;;;13.15;2.83;;;;;;;8.58;100.00;100703.59;4891850;29;20035;-74
2023/12/23 09:19:21;;;;;;;12.65;3.15;;;;;;;8.56;100.00;100705.47;4898188;29;20029;-74
2023/12/23 09:21:47;;;;;;;18.85;3.78;;;;;;;8.54;100.00;100712.78;4880061;29;20405;-74
2023/12/23 09:24:12;;;;;;;15.52;3.53;;;;;;;8.51;100.00;100711.16;4893538;29;20037;-74
2023/12/23 09:26:37;;;;;;;11.52;2.90;;;;;;;8.51;100.00;100708.47;4895584;29;20465;-74
2023/12/23 09:29:02;;;;;;;12.88;2.92;;;;;;;8.53;100.00;100719.94;4897000;29;20017;-74
2023/12/23 09:31:28;;;;;;;12.68;3.25;;;;;;;8.52;100.00;100709.31;4876073;29;20033;-74
2023/12/23 09:33:53;;;;;;;13.18;2.83;;;;;;;8.54;100.00;100708.28;4893020;29;20091;-74
2023/12/23 09:36:18;;;;;;;15.40;3.22;;;;;;;8.55;100.00;100693.03;4874144;29;20048;-74
2023/12/23 09:38:44;;;;;;;16.40;3.25;;;;;;;8.56;100.00;100700.13;4875233;29;20029;-74
2023/12/23 09:41:09;;;;;;;15.85;3.08;;;;;;;8.59;100.00;100696.38;4875027;29;20446;-74
2023/12/23 09:43:34;;;;;;;17.23;3.53;;;;;;;8.60;100.00;100707.00;4894875;29;20032;-74
2023/12/23 09:46:03;;;;;;;12.32;2.90;;;;;;;8.64;100.00;100713.88;4887428;29;20039;-75
2023/12/23 09:48:28;;;;;;;17.52;3.45;;;;;;;8.67;100.00;100719.03;4876448;29;20083;-74
2023/12/23 09:50:54;;;;;;;15.75;3.08;;;;;;;8.71;100.00;100714.31;4892567;29;20477;-74
2023/12/23 09:53:21;;;;;;;11.77;2.75;;;;;;;8.72;100.00;100711.50;4889312;29;20366;-72
2023/12/23 09:55:47;;;;;;;19.40;3.88;;;;;;;8.76;100.00;100719.38;4897731;29;20028;-73
2023/12/23 09:58:13;;;;;;;16.08;3.22;;;;;;;8.78;100.00;100717.44;4891154;29;20028;-73
2023/12/23 10:00:39;;;;;;;10.60;2.85;;;;;;;8.80;100.00;100707.47;4882312;29;20434;-75
2023/12/23 10:03:04;;;;;;;15.57;3.30;;;;;;;8.82;100.00;100724.31;4895971;29;20092;-73
2023/12/23 10:05:29;;;;;;;9.55;2.88;;;;;;;8.83;100.00;100728.69;4891534;29;20028;-72
2023/12/23 10:07:58;;;;;;;15.85;3.25;;;;;;;8.85;100.00;100737.50;4899161;29;20092;-73
2023/12/23 10:10:30;;;;;;;16.90;2.83;;;;;;;8.84;100.00;100735.78;4892238;29;20047;-72
2023/12/23 10:12:55;;;;;;;16.60;2.92;;;;;;;8.87;100.00;100740.91;4898303;29;20116;-73
2023/12/23 10:15:21;;;;;;;12.55;2.90;;;;;;;8.88;100.00;100742.66;4893259;29;20131;-73
2023/12/23 10:17:46;;;;;;;17.70;3.22;;;;;;;8.90;100.00;100741.59;4900883;29;20024;-72
2023/12/23 10:20:14;;;;;;;16.92;3.30;;;;;;;8.92;100.00;100746.84;4885196;29;20028;-73
2023/12/23 10:22:44;;;;;;;11.52;2.92;;;;;;;8.94;100.00;100726.13;4894580;29;20535;-72
2023/12/23 10:25:10;;;;;;;16.15;3.40;;;;;;;8.96;100.00;100724.22;4898262;29;20035;-72
2023/12/23 10:27:39;;;;;;;10.82;2.80;;;;;;;8.97;100.00;100720.56;4887927;29;20025;-73
2023/12/23 10:30:07;;;;;;;;;;;;;;;8.99;100.00;100715.97;4900900;29;20131;-73
2023/12/23 10:32:35;;;;;;;13.30;3.10;;;;;;;9.02;100.00;100726.47;4892887;29;19974;-74
2023/12/23 10:35:02;;;;;;;8.60;2.47;;;;;;;9.05;100.00;100712.88;4896905;29;20596;-73
2023/12/23 10:37:29;;;;;;;15.20;3.00;;;;;;;9.08;100.00;100720.69;4893594;29;20127;-73
2023/12/23 10:40:23;;;;;;;13.90;3.03;;;;;;;9.13;100.00;100730.25;4901413;29;20115;-72
2023/12/23 10:42:49;;;;;;;19.70;3.88;;;;;;;9.15;100.00;100720.25;4880868;29;20044;-73
2023/12/23 10:45:15;;;;;;;13.73;3.03;;;;;;;9.17;100.00;100739.81;4880047;29;20032;-73
2023/12/23 10:47:42;;;;;;;14.55;2.55;;;;;;;9.18;100.00;100744.19;4896821;29;20100;-73
2023/12/23 10:50:09;;;;;;;11.48;2.70;;;;;;;9.21;100.00;100727.88;4885647;29;20360;-73
2023/12/23 10:52:36;;;;;;;16.30;3.40;;;;;;;9.22;100.00;100722.44;4892728;29;20032;-73
2023/12/23 10:55:02;;;;;;;15.82;2.78;;;;;;;9.23;100.00;100721.44;4899579;29;20581;-73
2023/12/23 10:57:28;;;;;;;14.25;3.20;;;;;;;9.27;100.00;100724.78;4884145;29;20025;-72
2023/12/23 10:59:54;;;;;;;17.75;3.22;;;;;;;9.29;100.00;100722.84;4883135;29;20024;-73
2023/12/23 11:02:26;;;;;;;10.65;2.80;;;;;;;9.29;100.00;100720.16;4896002;29;20397;-73
2023/12/23 11:04:52;;;;;;;17.05;3.85;;;;;;;9.31;100.00;100728.94;4876742;29;20028;-74
2023/12/23 11:07:24;;;;;;;15.88;2.85;;;;;;;9.33;100.00;100710.94;4896607;29;20031;-73
2023/12/23 11:09:51;;;;;;;18.95;4.18;;;;;;;9.34;100.00;100715.34;4881668;29;20029;-72